LPA4320 UGTB-LTAC
Flight info
| Callsign | LPA4320 |
|---|---|
| Flight time | 1h 38m |
| Altitude | 36000 |
| Route | ZAGOT DCT NOLGA UN61 TBN UW71 ILHAN |
| Aircraft | A320/M-SDE3FGHIRWY/LB1 |
Departure
| Time | 2026-04-28 18:05 |
|---|---|
| Airport | Tbilisi International Airport (UGTB) |
Arrival
| Time | 2026-04-28 19:44 |
|---|---|
| Airport | Esenboğa International Airport (LTAC) |
| Time | Latitude | Longitude | Altitude | Speed | Heading |
|---|---|---|---|---|---|
| 2026-04-28 17:28 | 41.67092 | 44.96057 | 1527 ft | 0 kts | 43° |
| 2026-04-28 17:55 | 41.67089 | 44.96053 | 1526 ft | 3 kts | 43° |
| 2026-04-28 17:56 | 41.67025 | 44.95997 | 1520 ft | 4 kts | 340° |
| 2026-04-28 17:56 | 41.67017 | 44.96002 | 1519 ft | 0 kts | 313° |
| 2026-04-28 17:59 | 41.67040 | 44.95968 | 1523 ft | 12 kts | 312° |
| 2026-04-28 17:59 | 41.67085 | 44.95875 | 1522 ft | 11 kts | 307° |
| 2026-04-28 18:00 | 41.67134 | 44.95804 | 1526 ft | 10 kts | 314° |
| 2026-04-28 18:00 | 41.67178 | 44.95744 | 1521 ft | 10 kts | 314° |
| 2026-04-28 18:00 | 41.67236 | 44.95664 | 1522 ft | 11 kts | 314° |
| 2026-04-28 18:00 | 41.67287 | 44.95595 | 1522 ft | 10 kts | 313° |
| 2026-04-28 18:01 | 41.67328 | 44.95537 | 1522 ft | 8 kts | 314° |
| 2026-04-28 18:01 | 41.67377 | 44.95466 | 1523 ft | 12 kts | 312° |
| 2026-04-28 18:01 | 41.67429 | 44.95388 | 1525 ft | 10 kts | 310° |
| 2026-04-28 18:01 | 41.67479 | 44.95311 | 1526 ft | 12 kts | 311° |
| 2026-04-28 18:02 | 41.67534 | 44.95227 | 1520 ft | 11 kts | 311° |
| 2026-04-28 18:02 | 41.67581 | 44.95157 | 1524 ft | 9 kts | 313° |
| 2026-04-28 18:02 | 41.67622 | 44.95101 | 1526 ft | 7 kts | 314° |
| 2026-04-28 18:02 | 41.67653 | 44.95054 | 1521 ft | 7 kts | 305° |
| 2026-04-28 18:03 | 41.67661 | 44.94987 | 1526 ft | 8 kts | 259° |
| 2026-04-28 18:03 | 41.67642 | 44.94900 | 1525 ft | 11 kts | 253° |
| 2026-04-28 18:03 | 41.67617 | 44.94790 | 1526 ft | 13 kts | 253° |
| 2026-04-28 18:03 | 41.67588 | 44.94667 | 1524 ft | 15 kts | 252° |
| 2026-04-28 18:04 | 41.67556 | 44.94532 | 1520 ft | 16 kts | 251° |
| 2026-04-28 18:04 | 41.67505 | 44.94406 | 1525 ft | 13 kts | 206° |
| 2026-04-28 18:04 | 41.67437 | 44.94456 | 1524 ft | 11 kts | 137° |
| 2026-04-28 18:04 | 41.67424 | 44.94471 | 1524 ft | 5 kts | 136° |
| 2026-04-28 18:05 | 41.67195 | 44.94760 | 1525 ft | 88 kts | 136° |
| 2026-04-28 18:05 | 41.66813 | 44.95239 | 1522 ft | 138 kts | 137° |
| 2026-04-28 18:05 | 41.65687 | 44.96618 | 2105 ft | 174 kts | 139° |
| 2026-04-28 18:05 | 41.64771 | 44.97721 | 2899 ft | 183 kts | 139° |
| 2026-04-28 18:06 | 41.63811 | 44.98884 | 3611 ft | 188 kts | 138° |
| 2026-04-28 18:06 | 41.62794 | 45.00134 | 3887 ft | 210 kts | 141° |
| 2026-04-28 18:06 | 41.61443 | 45.00971 | 4177 ft | 230 kts | 178° |
| 2026-04-28 18:06 | 41.59860 | 45.00417 | 4510 ft | 251 kts | 216° |
| 2026-04-28 18:07 | 41.58783 | 44.98538 | 5012 ft | 265 kts | 251° |
| 2026-04-28 18:07 | 41.58415 | 44.96094 | 5783 ft | 271 kts | 264° |
| 2026-04-28 18:07 | 41.58276 | 44.93569 | 6614 ft | 274 kts | 266° |
| 2026-04-28 18:07 | 41.58155 | 44.91009 | 7433 ft | 278 kts | 266° |
| 2026-04-28 18:08 | 41.58033 | 44.88420 | 8231 ft | 281 kts | 266° |
| 2026-04-28 18:08 | 41.57781 | 44.85812 | 9018 ft | 284 kts | 259° |
| 2026-04-28 18:08 | 41.57346 | 44.83229 | 9778 ft | 288 kts | 255° |
| 2026-04-28 18:08 | 41.56825 | 44.80599 | 10308 ft | 301 kts | 254° |
| 2026-04-28 18:09 | 41.56251 | 44.77793 | 10531 ft | 324 kts | 254° |
| 2026-04-28 18:09 | 41.55645 | 44.74801 | 10851 ft | 342 kts | 255° |
| 2026-04-28 18:09 | 41.55032 | 44.71697 | 11483 ft | 348 kts | 255° |
| 2026-04-28 18:09 | 41.54442 | 44.68550 | 12171 ft | 352 kts | 258° |
| 2026-04-28 18:10 | 41.54179 | 44.65291 | 12824 ft | 356 kts | 265° |
| 2026-04-28 18:10 | 41.53977 | 44.61972 | 13489 ft | 359 kts | 265° |
| 2026-04-28 18:10 | 41.53772 | 44.58630 | 14134 ft | 362 kts | 265° |
| 2026-04-28 18:10 | 41.53565 | 44.55304 | 14753 ft | 366 kts | 265° |
| 2026-04-28 18:11 | 41.53354 | 44.51900 | 15367 ft | 369 kts | 265° |
| 2026-04-28 18:11 | 41.53139 | 44.48468 | 15966 ft | 373 kts | 265° |
| 2026-04-28 18:11 | 41.52923 | 44.45007 | 16548 ft | 376 kts | 265° |
| 2026-04-28 18:11 | 41.52703 | 44.41506 | 17119 ft | 379 kts | 265° |
| 2026-04-28 18:12 | 41.52481 | 44.37995 | 17681 ft | 382 kts | 265° |
| 2026-04-28 18:12 | 41.52258 | 44.34436 | 18229 ft | 386 kts | 265° |
| 2026-04-28 18:12 | 41.52033 | 44.30854 | 18771 ft | 389 kts | 265° |
| 2026-04-28 18:12 | 41.51804 | 44.27243 | 19300 ft | 392 kts | 265° |
| 2026-04-28 18:13 | 41.51572 | 44.23598 | 19830 ft | 395 kts | 265° |
| 2026-04-28 18:13 | 41.51337 | 44.19928 | 20351 ft | 398 kts | 265° |
| 2026-04-28 18:13 | 41.51100 | 44.16239 | 20860 ft | 402 kts | 265° |
| 2026-04-28 18:13 | 41.50858 | 44.12514 | 21359 ft | 405 kts | 265° |
| 2026-04-28 18:14 | 41.50613 | 44.08752 | 21827 ft | 407 kts | 265° |
| 2026-04-28 18:14 | 41.50365 | 44.04987 | 22283 ft | 410 kts | 265° |
| 2026-04-28 18:14 | 41.50112 | 44.01165 | 22727 ft | 413 kts | 264° |
| 2026-04-28 18:14 | 41.49856 | 43.97331 | 23156 ft | 416 kts | 264° |
| 2026-04-28 18:15 | 41.49598 | 43.93489 | 23569 ft | 418 kts | 264° |
| 2026-04-28 18:15 | 41.49338 | 43.89608 | 23971 ft | 421 kts | 264° |
| 2026-04-28 18:15 | 41.49078 | 43.85746 | 24353 ft | 424 kts | 264° |
| 2026-04-28 18:15 | 41.48812 | 43.81772 | 24733 ft | 426 kts | 264° |
| 2026-04-28 18:16 | 41.48547 | 43.77820 | 25093 ft | 428 kts | 264° |
| 2026-04-28 18:16 | 41.48277 | 43.73856 | 25442 ft | 431 kts | 264° |
| 2026-04-28 18:16 | 41.48004 | 43.69922 | 25778 ft | 433 kts | 264° |
| 2026-04-28 18:16 | 41.47725 | 43.65914 | 26110 ft | 435 kts | 264° |
| 2026-04-28 18:17 | 41.47444 | 43.61888 | 26432 ft | 438 kts | 264° |
| 2026-04-28 18:17 | 41.47160 | 43.57838 | 26756 ft | 440 kts | 264° |
| 2026-04-28 18:17 | 41.46874 | 43.53763 | 27069 ft | 442 kts | 264° |
| 2026-04-28 18:17 | 41.46584 | 43.49679 | 27372 ft | 444 kts | 264° |
| 2026-04-28 18:18 | 41.46292 | 43.45573 | 27670 ft | 446 kts | 264° |
| 2026-04-28 18:18 | 41.45995 | 43.41389 | 27961 ft | 448 kts | 264° |
| 2026-04-28 18:18 | 41.45701 | 43.37252 | 28238 ft | 450 kts | 264° |
| 2026-04-28 18:18 | 41.45503 | 43.34500 | 28415 ft | 451 kts | 264° |
| 2026-04-28 18:19 | 41.45103 | 43.28983 | 28758 ft | 453 kts | 264° |
| 2026-04-28 18:19 | 41.44794 | 43.24773 | 29005 ft | 455 kts | 264° |
| 2026-04-28 18:19 | 41.44484 | 43.20568 | 29240 ft | 457 kts | 264° |
| 2026-04-28 18:19 | 41.44173 | 43.16339 | 29472 ft | 459 kts | 264° |
| 2026-04-28 18:20 | 41.43862 | 43.12094 | 29695 ft | 460 kts | 264° |
| 2026-04-28 18:20 | 41.43552 | 43.07849 | 29909 ft | 462 kts | 264° |
| 2026-04-28 18:20 | 41.43237 | 43.03565 | 30119 ft | 463 kts | 264° |
| 2026-04-28 18:20 | 41.42917 | 42.99295 | 30385 ft | 463 kts | 264° |
| 2026-04-28 18:21 | 41.42552 | 42.95036 | 30678 ft | 462 kts | 262° |
| 2026-04-28 18:21 | 41.42087 | 42.90803 | 30962 ft | 461 kts | 261° |
| 2026-04-28 18:21 | 41.41556 | 42.86588 | 31241 ft | 461 kts | 260° |
| 2026-04-28 18:21 | 41.40997 | 42.82392 | 31518 ft | 460 kts | 259° |
| 2026-04-28 18:22 | 41.40438 | 42.78200 | 31790 ft | 460 kts | 260° |
| 2026-04-28 18:22 | 41.39893 | 42.74007 | 32056 ft | 459 kts | 260° |
| 2026-04-28 18:22 | 41.39365 | 42.69825 | 32322 ft | 459 kts | 260° |
| 2026-04-28 18:22 | 41.38844 | 42.65631 | 32582 ft | 458 kts | 261° |
| 2026-04-28 18:23 | 41.38334 | 42.61456 | 32838 ft | 458 kts | 261° |
| 2026-04-28 18:23 | 41.37824 | 42.57255 | 33091 ft | 457 kts | 261° |
| 2026-04-28 18:23 | 41.37316 | 42.53094 | 33341 ft | 457 kts | 261° |
| 2026-04-28 18:23 | 41.36802 | 42.48923 | 34146 ft | 451 kts | 261° |
| 2026-04-28 18:24 | 41.36299 | 42.44884 | 34766 ft | 439 kts | 260° |
| 2026-04-28 18:24 | 41.35966 | 42.42226 | 35038 ft | 435 kts | 260° |
| 2026-04-28 18:24 | 41.35297 | 42.36934 | 35425 ft | 432 kts | 260° |
| 2026-04-28 18:24 | 41.34794 | 42.32994 | 35635 ft | 431 kts | 260° |
| 2026-04-28 18:25 | 41.34290 | 42.29053 | 35844 ft | 431 kts | 260° |
| 2026-04-28 18:25 | 41.33790 | 42.25129 | 36027 ft | 431 kts | 260° |
| 2026-04-28 18:26 | 41.32286 | 42.13357 | 36082 ft | 430 kts | 260° |
| 2026-04-28 18:26 | 41.31276 | 42.05518 | 36094 ft | 429 kts | 259° |
| 2026-04-28 18:27 | 41.30262 | 41.97676 | 36095 ft | 430 kts | 260° |
| 2026-04-28 18:27 | 41.29257 | 41.89903 | 36102 ft | 430 kts | 260° |
| 2026-04-28 18:28 | 41.28218 | 41.82073 | 36105 ft | 430 kts | 259° |
| 2026-04-28 18:28 | 41.27167 | 41.74241 | 36106 ft | 430 kts | 259° |
| 2026-04-28 18:29 | 41.26128 | 41.66417 | 36106 ft | 430 kts | 260° |
| 2026-04-28 18:29 | 41.25082 | 41.58582 | 36108 ft | 430 kts | 259° |
| 2026-04-28 18:30 | 41.24030 | 41.50757 | 36102 ft | 430 kts | 259° |
| 2026-04-28 18:30 | 41.22971 | 41.42924 | 36105 ft | 430 kts | 259° |
| 2026-04-28 18:31 | 41.21901 | 41.35088 | 36109 ft | 431 kts | 259° |
| 2026-04-28 18:31 | 41.20834 | 41.27270 | 36118 ft | 431 kts | 259° |
| 2026-04-28 18:32 | 41.19755 | 41.19435 | 36134 ft | 431 kts | 259° |
| 2026-04-28 18:32 | 41.18851 | 41.12935 | 36143 ft | 431 kts | 259° |
| 2026-04-28 18:33 | 41.17753 | 41.05061 | 36153 ft | 431 kts | 259° |
| 2026-04-28 18:33 | 41.16664 | 40.97286 | 36165 ft | 431 kts | 259° |
| 2026-04-28 18:34 | 41.15567 | 40.89482 | 36168 ft | 431 kts | 259° |
| 2026-04-28 18:34 | 41.14465 | 40.81659 | 36163 ft | 430 kts | 259° |
| 2026-04-28 18:35 | 41.13359 | 40.73855 | 36161 ft | 430 kts | 259° |
| 2026-04-28 18:35 | 41.12242 | 40.66059 | 36156 ft | 430 kts | 259° |
| 2026-04-28 18:36 | 41.11129 | 40.58259 | 36143 ft | 430 kts | 259° |
| 2026-04-28 18:36 | 41.10004 | 40.50457 | 36136 ft | 430 kts | 259° |
| 2026-04-28 18:37 | 41.08881 | 40.42718 | 36131 ft | 430 kts | 259° |
| 2026-04-28 18:37 | 41.07749 | 40.34941 | 36130 ft | 429 kts | 259° |
| 2026-04-28 18:38 | 41.06615 | 40.27174 | 36132 ft | 429 kts | 259° |
| 2026-04-28 18:38 | 41.05472 | 40.19399 | 36129 ft | 429 kts | 259° |
| 2026-04-28 18:39 | 41.04323 | 40.11643 | 36137 ft | 429 kts | 259° |
| 2026-04-28 18:39 | 41.03170 | 40.03895 | 36146 ft | 429 kts | 259° |
| 2026-04-28 18:40 | 41.02017 | 39.96149 | 36153 ft | 429 kts | 259° |
| 2026-04-28 18:40 | 41.00862 | 39.88447 | 36155 ft | 429 kts | 259° |
| 2026-04-28 18:41 | 40.99823 | 39.80687 | 36156 ft | 428 kts | 266° |
| 2026-04-28 18:41 | 41.00180 | 39.72840 | 36160 ft | 428 kts | 277° |
| 2026-04-28 18:42 | 41.00935 | 39.65021 | 36158 ft | 428 kts | 277° |
| 2026-04-28 18:42 | 41.01677 | 39.57213 | 36163 ft | 428 kts | 277° |
| 2026-04-28 18:43 | 41.02422 | 39.49399 | 36156 ft | 427 kts | 277° |
| 2026-04-28 18:43 | 41.03157 | 39.41587 | 36151 ft | 427 kts | 277° |
| 2026-04-28 18:44 | 41.03884 | 39.33788 | 36148 ft | 427 kts | 277° |
| 2026-04-28 18:44 | 41.04964 | 39.22059 | 36150 ft | 426 kts | 276° |
| 2026-04-28 18:45 | 41.05672 | 39.14277 | 36152 ft | 426 kts | 276° |
| 2026-04-28 18:45 | 41.06384 | 39.06513 | 36152 ft | 426 kts | 277° |
| 2026-04-28 18:46 | 41.07108 | 38.98732 | 36153 ft | 425 kts | 276° |
| 2026-04-28 18:46 | 41.07827 | 38.90952 | 36153 ft | 425 kts | 276° |
| 2026-04-28 18:47 | 41.08534 | 38.83167 | 36149 ft | 425 kts | 276° |
| 2026-04-28 18:47 | 41.09231 | 38.75393 | 36149 ft | 425 kts | 276° |
| 2026-04-28 18:48 | 41.09925 | 38.67616 | 36148 ft | 425 kts | 276° |
| 2026-04-28 18:48 | 41.10607 | 38.59840 | 36149 ft | 425 kts | 276° |
| 2026-04-28 18:49 | 41.11160 | 38.53317 | 36150 ft | 425 kts | 276° |
| 2026-04-28 18:49 | 41.11909 | 38.44264 | 36157 ft | 424 kts | 276° |
| 2026-04-28 18:50 | 41.12547 | 38.36489 | 36161 ft | 424 kts | 276° |
| 2026-04-28 18:50 | 41.13183 | 38.28695 | 36166 ft | 424 kts | 276° |
| 2026-04-28 18:51 | 41.13822 | 38.20917 | 36169 ft | 424 kts | 276° |
| 2026-04-28 18:51 | 41.14459 | 38.13119 | 36170 ft | 424 kts | 276° |
| 2026-04-28 18:52 | 41.15098 | 38.05338 | 36175 ft | 424 kts | 276° |
| 2026-04-28 18:52 | 41.15730 | 37.97563 | 36176 ft | 424 kts | 275° |
| 2026-04-28 18:53 | 41.16345 | 37.89766 | 36173 ft | 424 kts | 275° |
| 2026-04-28 18:53 | 41.16979 | 37.81984 | 36170 ft | 424 kts | 276° |
| 2026-04-28 18:54 | 41.17646 | 37.74211 | 36165 ft | 423 kts | 276° |
| 2026-04-28 18:54 | 41.18308 | 37.66448 | 36161 ft | 423 kts | 276° |
| 2026-04-28 18:55 | 41.18834 | 37.59987 | 36161 ft | 423 kts | 275° |
| 2026-04-28 18:55 | 41.19348 | 37.50946 | 36161 ft | 423 kts | 274° |
| 2026-04-28 18:56 | 41.19875 | 37.43151 | 36156 ft | 423 kts | 275° |
| 2026-04-28 18:56 | 41.20474 | 37.35388 | 36155 ft | 422 kts | 275° |
| 2026-04-28 18:57 | 41.21063 | 37.27633 | 36155 ft | 422 kts | 275° |
| 2026-04-28 18:57 | 41.21637 | 37.19870 | 36146 ft | 422 kts | 275° |
| 2026-04-28 18:58 | 41.22239 | 37.12119 | 36146 ft | 422 kts | 275° |
| 2026-04-28 18:58 | 41.22852 | 37.04381 | 36146 ft | 422 kts | 275° |
| 2026-04-28 18:59 | 41.23445 | 36.96666 | 36153 ft | 421 kts | 275° |
| 2026-04-28 18:59 | 41.24030 | 36.88916 | 36159 ft | 421 kts | 275° |
| 2026-04-28 19:00 | 41.24616 | 36.81170 | 36167 ft | 421 kts | 275° |
| 2026-04-28 19:00 | 41.25193 | 36.73435 | 36173 ft | 421 kts | 275° |
| 2026-04-28 19:01 | 41.25762 | 36.65692 | 36175 ft | 420 kts | 275° |
| 2026-04-28 19:01 | 41.26252 | 36.57956 | 36251 ft | 420 kts | 269° |
| 2026-04-28 19:02 | 41.25308 | 36.50376 | 36152 ft | 416 kts | 250° |
| 2026-04-28 19:02 | 41.23306 | 36.43158 | 36148 ft | 417 kts | 250° |
| 2026-04-28 19:03 | 41.21302 | 36.35915 | 36141 ft | 418 kts | 250° |
| 2026-04-28 19:03 | 41.19284 | 36.28651 | 36136 ft | 419 kts | 250° |
| 2026-04-28 19:04 | 41.17254 | 36.21391 | 36127 ft | 420 kts | 250° |
| 2026-04-28 19:04 | 41.15238 | 36.14171 | 36112 ft | 420 kts | 250° |
| 2026-04-28 19:05 | 41.13204 | 36.06893 | 36100 ft | 420 kts | 250° |
| 2026-04-28 19:05 | 41.11160 | 35.99624 | 36096 ft | 421 kts | 250° |
| 2026-04-28 19:06 | 41.09435 | 35.93531 | 36087 ft | 422 kts | 250° |
| 2026-04-28 19:06 | 41.06996 | 35.85084 | 36075 ft | 422 kts | 249° |
| 2026-04-28 19:07 | 41.04858 | 35.77835 | 36060 ft | 423 kts | 249° |
| 2026-04-28 19:07 | 41.02705 | 35.70573 | 36054 ft | 423 kts | 249° |
| 2026-04-28 19:08 | 41.00582 | 35.63300 | 36054 ft | 423 kts | 250° |
| 2026-04-28 19:08 | 40.99684 | 35.60148 | 36057 ft | 424 kts | 250° |
| 2026-04-28 19:09 | 40.97617 | 35.52860 | 36061 ft | 424 kts | 250° |
| 2026-04-28 19:09 | 40.95521 | 35.45553 | 36059 ft | 424 kts | 250° |
| 2026-04-28 19:10 | 40.93413 | 35.38255 | 36063 ft | 425 kts | 250° |
| 2026-04-28 19:10 | 40.91310 | 35.30943 | 36065 ft | 425 kts | 250° |
| 2026-04-28 19:11 | 40.89209 | 35.23635 | 36056 ft | 425 kts | 250° |
| 2026-04-28 19:11 | 40.87094 | 35.16332 | 36044 ft | 426 kts | 250° |
| 2026-04-28 19:12 | 40.84957 | 35.09030 | 36035 ft | 426 kts | 250° |
| 2026-04-28 19:12 | 40.83172 | 35.02956 | 36025 ft | 427 kts | 250° |
| 2026-04-28 19:13 | 40.81032 | 34.95644 | 36014 ft | 427 kts | 250° |
| 2026-04-28 19:13 | 40.78896 | 34.88335 | 36013 ft | 427 kts | 250° |
| 2026-04-28 19:14 | 40.76750 | 34.81024 | 36007 ft | 428 kts | 250° |
| 2026-04-28 19:14 | 40.75667 | 34.77355 | 35876 ft | 427 kts | 250° |
| 2026-04-28 19:14 | 40.74590 | 34.73715 | 35990 ft | 427 kts | 250° |
| 2026-04-28 19:15 | 40.72405 | 34.66424 | 35999 ft | 427 kts | 249° |
| 2026-04-28 19:15 | 40.70576 | 34.60379 | 36007 ft | 426 kts | 249° |
| 2026-04-28 19:16 | 40.67993 | 34.51902 | 36003 ft | 426 kts | 249° |
| 2026-04-28 19:16 | 40.65788 | 34.44664 | 35996 ft | 425 kts | 249° |
| 2026-04-28 19:17 | 40.63595 | 34.37424 | 35989 ft | 425 kts | 249° |
| 2026-04-28 19:17 | 40.61397 | 34.30200 | 35996 ft | 425 kts | 249° |
| 2026-04-28 19:18 | 40.59203 | 34.23030 | 35985 ft | 425 kts | 249° |
| 2026-04-28 19:18 | 40.56988 | 34.15803 | 35977 ft | 425 kts | 249° |
| 2026-04-28 19:19 | 40.54764 | 34.08594 | 35982 ft | 425 kts | 249° |
| 2026-04-28 19:19 | 40.52538 | 34.01380 | 35985 ft | 426 kts | 249° |
| 2026-04-28 19:20 | 40.50307 | 33.94167 | 35971 ft | 426 kts | 250° |
| 2026-04-28 19:20 | 40.48334 | 33.86826 | 35979 ft | 426 kts | 253° |
| 2026-04-28 19:21 | 40.46575 | 33.79383 | 35988 ft | 426 kts | 254° |
| 2026-04-28 19:21 | 40.44359 | 33.72178 | 35967 ft | 427 kts | 240° |
| 2026-04-28 19:22 | 40.42610 | 33.69024 | 35399 ft | 429 kts | 230° |
| 2026-04-28 19:22 | 40.41214 | 33.67188 | 34904 ft | 431 kts | 223° |
| 2026-04-28 19:22 | 40.38027 | 33.63966 | 33868 ft | 435 kts | 219° |
| 2026-04-28 19:22 | 40.35601 | 33.61563 | 32970 ft | 437 kts | 219° |
| 2026-04-28 19:23 | 40.33175 | 33.59135 | 32068 ft | 439 kts | 219° |
| 2026-04-28 19:23 | 40.30750 | 33.56692 | 31355 ft | 438 kts | 219° |
| 2026-04-28 19:23 | 40.28377 | 33.54300 | 30747 ft | 434 kts | 219° |
| 2026-04-28 19:23 | 40.25988 | 33.51900 | 30153 ft | 431 kts | 219° |
| 2026-04-28 19:24 | 40.23610 | 33.49523 | 29488 ft | 428 kts | 219° |
| 2026-04-28 19:24 | 40.21227 | 33.47148 | 28843 ft | 424 kts | 219° |
| 2026-04-28 19:24 | 40.18887 | 33.44820 | 28228 ft | 420 kts | 219° |
| 2026-04-28 19:24 | 40.16617 | 33.42527 | 27653 ft | 416 kts | 220° |
| 2026-04-28 19:25 | 40.14371 | 33.40088 | 27056 ft | 413 kts | 222° |
| 2026-04-28 19:25 | 40.13667 | 33.39293 | 26877 ft | 411 kts | 223° |
| 2026-04-28 19:26 | 40.11760 | 33.37178 | 26312 ft | 410 kts | 221° |
| 2026-04-28 19:26 | 40.09607 | 33.34757 | 25793 ft | 406 kts | 223° |
| 2026-04-28 19:26 | 40.07520 | 33.32296 | 25268 ft | 402 kts | 224° |
| 2026-04-28 19:26 | 40.05464 | 33.29842 | 24740 ft | 399 kts | 224° |
| 2026-04-28 19:27 | 40.03408 | 33.27412 | 24227 ft | 396 kts | 223° |
| 2026-04-28 19:27 | 40.01333 | 33.25058 | 23727 ft | 394 kts | 221° |
| 2026-04-28 19:27 | 39.99186 | 33.22861 | 23182 ft | 392 kts | 218° |
| 2026-04-28 19:27 | 39.96979 | 33.20764 | 22638 ft | 390 kts | 217° |
| 2026-04-28 19:28 | 39.94769 | 33.18735 | 22158 ft | 387 kts | 216° |
| 2026-04-28 19:28 | 39.92578 | 33.16732 | 22078 ft | 381 kts | 217° |
| 2026-04-28 19:28 | 39.90451 | 33.14771 | 22036 ft | 366 kts | 218° |
| 2026-04-28 19:28 | 39.88427 | 33.12881 | 22036 ft | 350 kts | 218° |
| 2026-04-28 19:29 | 39.86493 | 33.11053 | 22037 ft | 335 kts | 218° |
| 2026-04-28 19:29 | 39.85270 | 33.09891 | 22036 ft | 325 kts | 219° |
| 2026-04-28 19:29 | 39.82914 | 33.07645 | 22036 ft | 303 kts | 219° |
| 2026-04-28 19:29 | 39.81255 | 33.06068 | 22029 ft | 288 kts | 219° |
| 2026-04-28 19:30 | 39.79667 | 33.04559 | 21856 ft | 279 kts | 219° |
| 2026-04-28 19:30 | 39.78107 | 33.03074 | 21533 ft | 276 kts | 219° |
| 2026-04-28 19:30 | 39.76564 | 33.01600 | 21198 ft | 274 kts | 219° |
| 2026-04-28 19:30 | 39.75031 | 33.00136 | 20708 ft | 278 kts | 219° |
| 2026-04-28 19:31 | 39.73426 | 32.98603 | 19902 ft | 295 kts | 219° |
| 2026-04-28 19:31 | 39.71747 | 32.97004 | 19363 ft | 301 kts | 219° |
| 2026-04-28 19:31 | 39.70054 | 32.95400 | 18886 ft | 305 kts | 219° |
| 2026-04-28 19:31 | 39.68311 | 32.93751 | 18384 ft | 310 kts | 219° |
| 2026-04-28 19:32 | 39.66563 | 32.92100 | 17976 ft | 310 kts | 219° |
| 2026-04-28 19:32 | 39.64818 | 32.90455 | 17608 ft | 309 kts | 218° |
| 2026-04-28 19:32 | 39.63195 | 32.88678 | 17251 ft | 302 kts | 234° |
| 2026-04-28 19:32 | 39.62306 | 32.86283 | 16903 ft | 294 kts | 262° |
| 2026-04-28 19:33 | 39.62385 | 32.83713 | 16738 ft | 283 kts | 287° |
| 2026-04-28 19:33 | 39.63274 | 32.81503 | 16614 ft | 272 kts | 305° |
| 2026-04-28 19:33 | 39.64370 | 32.79569 | 16505 ft | 260 kts | 309° |
| 2026-04-28 19:33 | 39.65743 | 32.78173 | 16525 ft | 245 kts | 335° |
| 2026-04-28 19:34 | 39.67327 | 32.77765 | 16523 ft | 225 kts | 359° |
| 2026-04-28 19:34 | 39.68818 | 32.78264 | 16507 ft | 221 kts | 24° |
| 2026-04-28 19:34 | 39.70088 | 32.79370 | 16145 ft | 218 kts | 32° |
| 2026-04-28 19:34 | 39.71315 | 32.80525 | 15597 ft | 219 kts | 32° |
| 2026-04-28 19:35 | 39.72534 | 32.81679 | 15085 ft | 218 kts | 33° |
| 2026-04-28 19:35 | 39.73758 | 32.82840 | 14590 ft | 218 kts | 32° |
| 2026-04-28 19:35 | 39.74981 | 32.83997 | 14103 ft | 217 kts | 32° |
| 2026-04-28 19:35 | 39.76212 | 32.85161 | 13598 ft | 216 kts | 33° |
| 2026-04-28 19:36 | 39.77407 | 32.86293 | 13081 ft | 214 kts | 33° |
| 2026-04-28 19:36 | 39.78608 | 32.87432 | 12580 ft | 213 kts | 33° |
| 2026-04-28 19:36 | 39.79801 | 32.88559 | 12088 ft | 211 kts | 33° |
| 2026-04-28 19:36 | 39.80991 | 32.89684 | 11595 ft | 210 kts | 33° |
| 2026-04-28 19:37 | 39.82171 | 32.90799 | 11133 ft | 209 kts | 33° |
| 2026-04-28 19:37 | 39.82965 | 32.91549 | 10808 ft | 208 kts | 33° |
| 2026-04-28 19:37 | 39.84510 | 32.93009 | 10178 ft | 207 kts | 34° |
| 2026-04-28 19:37 | 39.85668 | 32.94106 | 9720 ft | 205 kts | 34° |
| 2026-04-28 19:38 | 39.86819 | 32.95197 | 9230 ft | 203 kts | 34° |
| 2026-04-28 19:38 | 39.87958 | 32.96277 | 8766 ft | 201 kts | 34° |
| 2026-04-28 19:38 | 39.89119 | 32.97267 | 8303 ft | 197 kts | 22° |
| 2026-04-28 19:38 | 39.90428 | 32.97641 | 7864 ft | 192 kts | 359° |
| 2026-04-28 19:39 | 39.91715 | 32.97317 | 7419 ft | 187 kts | 336° |
| 2026-04-28 19:39 | 39.92787 | 32.96393 | 6972 ft | 185 kts | 316° |
| 2026-04-28 19:39 | 39.93731 | 32.95267 | 6550 ft | 183 kts | 317° |
| 2026-04-28 19:39 | 39.94665 | 32.94158 | 6080 ft | 180 kts | 317° |
| 2026-04-28 19:40 | 39.95588 | 32.93061 | 5492 ft | 180 kts | 318° |
| 2026-04-28 19:40 | 39.96513 | 32.91960 | 4923 ft | 180 kts | 319° |
| 2026-04-28 19:40 | 39.97435 | 32.90864 | 4323 ft | 179 kts | 318° |
| 2026-04-28 19:40 | 39.98375 | 32.89830 | 4002 ft | 178 kts | 328° |
| 2026-04-28 19:41 | 39.99546 | 32.89508 | 4276 ft | 171 kts | 6° |
| 2026-04-28 19:41 | 40.00643 | 32.90038 | 4654 ft | 169 kts | 33° |
| 2026-04-28 19:41 | 40.01585 | 32.90926 | 4525 ft | 162 kts | 37° |
| 2026-04-28 19:41 | 40.02460 | 32.91766 | 4499 ft | 151 kts | 36° |
| 2026-04-28 19:42 | 40.03301 | 32.92568 | 4498 ft | 148 kts | 36° |
| 2026-04-28 19:42 | 40.04130 | 32.93357 | 4479 ft | 147 kts | 36° |
| 2026-04-28 19:42 | 40.04953 | 32.94139 | 4343 ft | 147 kts | 36° |
| 2026-04-28 19:42 | 40.05498 | 32.94658 | 4223 ft | 146 kts | 36° |
| 2026-04-28 19:43 | 40.06598 | 32.95703 | 3974 ft | 145 kts | 36° |
| 2026-04-28 19:43 | 40.07397 | 32.96463 | 3786 ft | 144 kts | 36° |
| 2026-04-28 19:43 | 40.08206 | 32.97232 | 3584 ft | 143 kts | 36° |
| 2026-04-28 19:43 | 40.09011 | 32.97998 | 3397 ft | 143 kts | 37° |
| 2026-04-28 19:44 | 40.09814 | 32.98762 | 3198 ft | 142 kts | 37° |
| 2026-04-28 19:44 | 40.10595 | 32.99517 | 3112 ft | 125 kts | 37° |
| 2026-04-28 19:44 | 40.11054 | 32.99946 | 3122 ft | 37 kts | 36° |
| 2026-04-28 19:44 | 40.11131 | 33.00021 | 3126 ft | 20 kts | 36° |
| 2026-04-28 19:45 | 40.11279 | 33.00160 | 3128 ft | 27 kts | 36° |
| 2026-04-28 19:45 | 40.11442 | 33.00311 | 3134 ft | 25 kts | 27° |
| 2026-04-28 19:45 | 40.11535 | 33.00225 | 3134 ft | 14 kts | 311° |
| 2026-04-28 19:45 | 40.11555 | 33.00197 | 3134 ft | 0 kts | 314° |
| 2026-04-28 19:46 | 40.11572 | 33.00140 | 3133 ft | 18 kts | 258° |
| 2026-04-28 19:46 | 40.11461 | 33.00025 | 3126 ft | 23 kts | 214° |
| 2026-04-28 19:46 | 40.11324 | 32.99900 | 3125 ft | 24 kts | 217° |
| 2026-04-28 19:47 | 40.11189 | 32.99768 | 3123 ft | 22 kts | 220° |
| 2026-04-28 19:47 | 40.11072 | 32.99652 | 3121 ft | 21 kts | 216° |
| 2026-04-28 19:47 | 40.10953 | 32.99537 | 3118 ft | 21 kts | 216° |
| 2026-04-28 19:47 | 40.10827 | 32.99417 | 3115 ft | 24 kts | 216° |
| 2026-04-28 19:48 | 40.10685 | 32.99282 | 3111 ft | 26 kts | 216° |
| 2026-04-28 19:48 | 40.10530 | 32.99134 | 3107 ft | 29 kts | 216° |
| 2026-04-28 19:48 | 40.10371 | 32.98984 | 3103 ft | 26 kts | 216° |
| 2026-04-28 19:48 | 40.10302 | 32.98844 | 3100 ft | 11 kts | 300° |
| 2026-04-28 19:49 | 40.10308 | 32.98791 | 3100 ft | 9 kts | 244° |
| 2026-04-28 19:49 | 40.10261 | 32.98740 | 3102 ft | 9 kts | 214° |
| 2026-04-28 19:49 | 40.10195 | 32.98731 | 3102 ft | 12 kts | 145° |
| 2026-04-28 19:49 | 40.10206 | 32.98822 | 3100 ft | 11 kts | 44° |
| 2026-04-28 19:50 | 40.10328 | 32.98942 | 3102 ft | 10 kts | 36° |
| 2026-04-28 19:50 | 40.10383 | 32.98995 | 3103 ft | 9 kts | 36° |
| 2026-04-28 19:50 | 40.10433 | 32.99042 | 3105 ft | 8 kts | 36° |
| 2026-04-28 19:51 | 40.10478 | 32.99084 | 3106 ft | 10 kts | 36° |
| 2026-04-28 19:51 | 40.10545 | 32.99149 | 3107 ft | 12 kts | 36° |
| 2026-04-28 19:51 | 40.10613 | 32.99214 | 3109 ft | 12 kts | 36° |
| 2026-04-28 19:51 | 40.10682 | 32.99279 | 3111 ft | 13 kts | 36° |
| 2026-04-28 19:52 | 40.10772 | 32.99366 | 3113 ft | 18 kts | 36° |
| 2026-04-28 19:52 | 40.10873 | 32.99462 | 3116 ft | 18 kts | 36° |
| 2026-04-28 19:52 | 40.10973 | 32.99558 | 3119 ft | 18 kts | 36° |
| 2026-04-28 19:52 | 40.11072 | 32.99652 | 3121 ft | 18 kts | 36° |
| 2026-04-28 19:53 | 40.11169 | 32.99745 | 3119 ft | 17 kts | 36° |
| 2026-04-28 19:53 | 40.11269 | 32.99841 | 3124 ft | 18 kts | 36° |
| 2026-04-28 19:53 | 40.11372 | 32.99940 | 3124 ft | 19 kts | 35° |
| 2026-04-28 19:53 | 40.11476 | 33.00038 | 3128 ft | 16 kts | 36° |
| 2026-04-28 19:54 | 40.11567 | 33.00119 | 3133 ft | 15 kts | 20° |
| 2026-04-28 19:54 | 40.11648 | 33.00041 | 3127 ft | 19 kts | 304° |
| 2026-04-28 19:54 | 40.11733 | 32.99890 | 3120 ft | 17 kts | 306° |
| 2026-04-28 19:54 | 40.11800 | 32.99742 | 3113 ft | 20 kts | 277° |
| 2026-04-28 19:55 | 40.11784 | 32.99608 | 3113 ft | 13 kts | 269° |
| 2026-04-28 19:55 | 40.11780 | 32.99497 | 3113 ft | 11 kts | 265° |
| 2026-04-28 19:55 | 40.11755 | 32.99419 | 3113 ft | 8 kts | 203° |
| 2026-04-28 19:55 | 40.11713 | 32.99425 | 3113 ft | 3 kts | 169° |